ELGK1: Caney River

Data processed at Wed May 22 2019 23:50


All information presented herein is the property of the government of the United States of America and may be revised or deleted at any time without prior notice.
Dissemination of this information without the expressed written consent of the Public Affairs Office, Tulsa District U.S. Army Corps of Engineers is strictly prohibited.
These data are gathered electronically and, as presented, have not undergone any form of quality control. These data are not guaranteed to be valid or correct.
Go to home page.
Go to station list.
Go to home page.

Upstream stations:

Downstream station:
Previous Day
Next Day
Current Day
    
SHEF ID:       ELGK1     CANEY R NR ELGIN, KS
STATION TYPE:  
Regulating: Stage =    25.00, Flow =    32961

               PRECIP     STAGE  STAGE(2)  RIV-FLOW  BAT-LOAD
                   in        ft        ft       cfs      volt
              Ccp-Rev   Ccp-Rev   Ccp-Rev   Ccp-Rev   Ccp-Rev
(US/Central)
05/22 00:00      0.00     18.07      ----     21094     12.77
05/22 01:00      0.00     16.98      ----     19574     12.77
05/22 02:00      0.00     15.49      ----     17500     12.77
05/22 03:00      0.00     13.60      ----     14880     12.71
05/22 04:00      0.00     11.61      ----     12410     12.71
05/22 05:00      0.00     10.06      ----     10017     12.71
05/22 06:00      0.00      9.04      ----      8613     12.65
05/22 07:00      0.00      8.41      ----      7756     12.65
05/22 08:00      0.00      8.10      ----      7335     12.65
05/22 09:00      0.00      7.82      ----      6955     12.65
05/22 10:00      0.00      7.78      ----      6900     12.83
05/22 11:00      0.00      7.73      ----      6833     13.00
05/22 12:00      0.00      7.62      ----      6684     13.12
05/22 13:00      0.00      7.53      ----      6562     13.18
05/22 14:00      0.00      7.38      ----      6359     13.12
05/22 15:00      0.00      7.33      ----      6291     13.30
05/22 16:00      0.00      7.24      ----      6170     13.24
05/22 17:00      0.00      7.15      ----      6048     13.24
05/22 18:00      0.00      7.02      ----      5872     13.24
05/22 19:00      0.00      6.95      ----      5778     13.24
05/22 20:00      0.00      6.87      ----      5670     13.07
05/22 21:00      0.00      6.72      ----      5468     12.95
05/22 22:00      0.00      6.65      ----      5374     12.89
05/22 23:00      0.02      6.46      ----      5118     12.89